< < Back
Terminal Aerodrome Forecast


Current Version              Previous Versions:   1  2  3  4  5  6  7  8  9  

Terminal Aerodrome Forecast

973
FTUS42 KILM 241100 CCA
TAFFLO
TAF COR
KFLO 241152Z 2412/2512 21008KT 6SM BR BKN006
     FM241700 22012G20KT P6SM VCSH BKN006
     FM242100 22006KT 6SM BR SCT007 OVC015
     FM250000 20010KT 3SM BR BKN005 OVC025=

Latest METAR

305
SAUS70 KWBC 242100 RRC
MTRFLO
METAR KFLO 242053Z 19010KT 10SM FEW055 OVC070 21/19 A2984 RMK AO2 RAE04
SLP102 P0000 60000 T02060189 53003


USA.gov is the U.S. government's official web portal to all federal, state and local government web resources and services.